createdAt,value
2022-08-24T00:00:31.644Z,16.10
2022-08-24T00:03:36.825Z,8.98
2022-08-24T00:06:43.717Z,17.30
2022-08-24T00:09:49.532Z,8.10
2022-08-24T00:12:58.455Z,23.70
2022-08-24T00:16:04.270Z,17.15
2022-08-24T00:19:10.982Z,15.63
2022-08-24T00:22:16.826Z,15.08
2022-08-24T00:25:24.924Z,19.05
2022-08-24T00:28:30.211Z,16.35
2022-08-24T00:31:37.125Z,15.93
2022-08-24T00:34:56.152Z,21.60
2022-08-24T00:37:51.268Z,13.85
2022-08-24T00:41:01.870Z,28.57
2022-08-24T00:44:14.161Z,20.97
2022-08-24T00:47:29.281Z,24.37
2022-08-24T00:50:42.615Z,26.30
2022-08-24T00:53:54.122Z,16.05
2022-08-24T00:57:03.758Z,25.60
2022-08-24T01:00:14.034Z,28.75
2022-08-24T01:03:20.876Z,26.90
2022-08-24T01:06:26.602Z,24.52
2022-08-24T01:09:31.419Z,20.75
2022-08-24T01:12:32.792Z,32.03
2022-08-24T01:15:27.232Z,28.65
2022-08-24T01:18:53.257Z,26.20
2022-08-24T01:22:18.993Z,40.28
2022-08-24T01:25:25.831Z,20.72
2022-08-24T01:28:33.147Z,28.87
2022-08-24T01:31:38.933Z,22.32
2022-08-24T01:34:44.724Z,47.43
2022-08-24T01:37:49.959Z,46.58
2022-08-24T01:41:03.075Z,34.15
2022-08-24T01:44:09.421Z,46.50
2022-08-24T01:47:16.186Z,47.83
2022-08-24T01:50:22.076Z,36.05
2022-08-24T01:53:29.221Z,45.48
2022-08-24T01:56:38.153Z,41.35
2022-08-24T01:59:43.013Z,43.83
2022-08-24T02:02:42.606Z,47.35
2022-08-24T02:05:35.997Z,44.65
2022-08-24T02:08:43.807Z,79.70
2022-08-24T02:11:50.708Z,51.00
2022-08-24T02:14:59.243Z,45.90
2022-08-24T02:18:04.560Z,52.70
2022-08-24T02:21:11.359Z,43.00
2022-08-24T02:24:18.760Z,56.25
2022-08-24T02:27:23.822Z,52.30
2022-08-24T02:30:29.620Z,50.95
2022-08-24T02:33:35.386Z,61.95
2022-08-24T02:36:42.248Z,51.05
2022-08-24T02:39:48.071Z,42.35
2022-08-24T02:42:54.737Z,52.20
2022-08-24T02:46:01.455Z,48.00
2022-08-24T02:49:11.297Z,38.38
2022-08-24T02:52:15.491Z,56.45
2022-08-24T02:55:21.413Z,43.60
2022-08-24T02:58:27.965Z,48.80
2022-08-24T03:01:33.688Z,31.82
2022-08-24T03:04:38.735Z,24.45
2022-08-24T03:07:45.620Z,72.27
2022-08-24T03:10:52.407Z,51.92
2022-08-24T03:13:58.925Z,49.48
2022-08-24T03:17:05.313Z,39.88
2022-08-24T03:20:10.631Z,41.77
2022-08-24T03:23:17.217Z,43.68
2022-08-24T03:26:22.961Z,33.02
2022-08-24T03:29:24.203Z,39.30
2022-08-24T03:32:09.986Z,39.38
2022-08-24T03:35:02.238Z,42.62
2022-08-24T03:37:48.022Z,30.15
2022-08-24T03:40:40.566Z,40.83
2022-08-24T03:43:59.657Z,37.15
2022-08-24T03:47:05.111Z,44.08
2022-08-24T03:50:10.091Z,47.17
2022-08-24T03:53:15.144Z,40.25
2022-08-24T03:56:20.924Z,32.67
2022-08-24T03:59:27.456Z,37.98
2022-08-24T04:02:33.742Z,26.77
2022-08-24T04:05:39.159Z,38.33
2022-08-24T04:08:46.891Z,35.23
2022-08-24T04:11:53.670Z,40.12
2022-08-24T04:15:02.281Z,38.88
2022-08-24T04:18:08.819Z,35.88
2022-08-24T04:21:14.933Z,23.57
2022-08-24T04:24:21.330Z,31.87
2022-08-24T04:27:27.390Z,26.40
2022-08-24T04:30:33.101Z,29.72
2022-08-24T04:33:41.580Z,30.32
2022-08-24T04:36:47.081Z,25.10
2022-08-24T04:39:53.119Z,38.35
2022-08-24T04:43:01.431Z,19.85
2022-08-24T04:46:10.030Z,37.33
2022-08-24T04:49:15.728Z,30.27
2022-08-24T04:52:22.183Z,28.80
2022-08-24T04:55:27.872Z,32.42
2022-08-24T04:58:34.319Z,22.20
2022-08-24T05:01:42.086Z,24.43
2022-08-24T05:04:47.633Z,27.45
2022-08-24T05:07:56.565Z,19.35
2022-08-24T05:11:02.878Z,25.62
2022-08-24T05:14:11.191Z,24.52
2022-08-24T05:17:19.278Z,19.05
2022-08-24T05:20:28.395Z,17.07
2022-08-24T05:23:37.093Z,18.17
2022-08-24T05:26:45.239Z,22.30
2022-08-24T05:29:53.971Z,15.05
2022-08-24T05:32:59.495Z,17.05
2022-08-24T05:36:06.126Z,22.85
2022-08-24T05:39:12.865Z,23.52
2022-08-24T05:42:20.442Z,27.82
2022-08-24T05:45:25.268Z,16.12
2022-08-24T05:48:30.793Z,15.13
2022-08-24T05:51:39.021Z,21.82
2022-08-24T05:54:44.052Z,21.82
2022-08-24T05:57:51.924Z,9.35
2022-08-24T06:00:58.553Z,14.38
2022-08-24T06:04:05.992Z,23.92
2022-08-24T06:07:11.774Z,22.02
2022-08-24T06:10:35.994Z,14.25
2022-08-24T06:13:26.701Z,13.83
2022-08-24T06:16:34.064Z,18.70
2022-08-24T06:19:39.692Z,22.07
2022-08-24T06:22:45.126Z,16.10
2022-08-24T06:26:15.262Z,12.30
2022-08-24T06:29:18.382Z,7.08
2022-08-24T06:32:25.882Z,11.65
2022-08-24T06:35:31.241Z,7.72
2022-08-24T06:38:37.929Z,15.75
2022-08-24T06:41:45.412Z,18.98
2022-08-24T06:44:54.829Z,9.90
2022-08-24T06:48:02.618Z,13.45
2022-08-24T06:51:09.265Z,10.28
2022-08-24T06:54:15.224Z,6.75
2022-08-24T06:57:20.783Z,9.90
2022-08-24T07:00:27.555Z,6.58
2022-08-24T07:03:33.300Z,8.93
2022-08-24T07:06:41.392Z,9.33
2022-08-24T07:09:46.888Z,7.60
2022-08-24T07:12:53.969Z,10.00
2022-08-24T07:16:06.001Z,11.55
2022-08-24T07:19:16.506Z,8.18
2022-08-24T07:22:23.254Z,23.00
2022-08-24T07:25:28.853Z,16.20
2022-08-24T07:28:35.804Z,8.63
2022-08-24T07:31:42.318Z,5.45
2022-08-24T07:34:58.547Z,11.15
2022-08-24T07:38:11.702Z,13.08
2022-08-24T07:44:38.641Z,7.03
2022-08-24T07:47:56.277Z,5.17
2022-08-24T07:51:17.698Z,4.70
2022-08-24T07:54:25.470Z,12.25
2022-08-24T07:57:31.701Z,10.28
2022-08-24T08:00:37.394Z,9.20
2022-08-24T08:03:44.627Z,10.65
2022-08-24T08:06:53.841Z,9.35
2022-08-24T08:10:00.773Z,6.55
2022-08-24T08:13:09.228Z,7.17
2022-08-24T08:16:15.768Z,8.25
2022-08-24T08:19:21.121Z,8.80
2022-08-24T08:22:39.006Z,12.20
2022-08-24T08:25:47.471Z,13.65
2022-08-24T08:28:57.095Z,4.50
2022-08-24T08:32:03.448Z,10.00
2022-08-24T08:35:10.089Z,8.93
2022-08-24T08:38:16.518Z,7.85
2022-08-24T08:41:45.695Z,14.28
2022-08-24T08:45:21.514Z,13.32
2022-08-24T08:48:43.834Z,13.20
2022-08-24T08:52:32.289Z,11.10
2022-08-24T08:56:13.298Z,6.45
2022-08-24T08:59:29.569Z,10.75
2022-08-24T09:02:55.719Z,9.95
2022-08-24T09:06:31.338Z,10.00
2022-08-24T09:09:57.369Z,17.40
2022-08-24T09:13:30.999Z,16.87
2022-08-24T09:17:21.637Z,8.65
2022-08-24T09:20:43.675Z,12.20
2022-08-24T09:24:18.026Z,8.63
2022-08-24T09:27:42.154Z,11.15
2022-08-24T09:30:52.591Z,7.12
2022-08-24T09:34:05.000Z,11.28
2022-08-24T09:37:20.360Z,9.00
2022-08-24T09:40:18.713Z,8.20
2022-08-24T09:44:10.385Z,8.93
2022-08-24T09:47:20.104Z,6.60
2022-08-24T09:51:03.738Z,5.00
2022-08-24T09:54:37.632Z,6.25
2022-08-24T09:58:11.286Z,8.73
2022-08-24T10:01:57.724Z,5.78
2022-08-24T10:05:17.433Z,7.17
2022-08-24T10:09:23.995Z,7.17
2022-08-24T10:13:14.351Z,7.03
2022-08-24T10:16:43.968Z,11.43
2022-08-24T10:20:31.389Z,6.50
2022-08-24T10:24:29.605Z,10.53
2022-08-24T10:27:42.215Z,6.17
2022-08-24T10:31:01.491Z,11.48
2022-08-24T10:34:24.706Z,2.00
2022-08-24T10:37:43.550Z,8.18
2022-08-24T10:41:01.317Z,10.82
2022-08-24T10:44:52.270Z,3.80
2022-08-24T10:48:03.095Z,5.33
2022-08-24T10:51:35.421Z,11.12
2022-08-24T10:54:41.031Z,11.25
2022-08-24T10:57:56.799Z,7.25
2022-08-24T11:00:58.215Z,7.20
2022-08-24T11:04:13.937Z,4.75
2022-08-24T11:07:35.642Z,5.60
2022-08-24T11:10:43.410Z,6.20
2022-08-24T11:13:49.207Z,2.80
2022-08-24T11:16:58.077Z,11.95
2022-08-24T11:20:06.426Z,8.50
2022-08-24T11:23:18.970Z,8.98
2022-08-24T11:26:34.759Z,7.35
2022-08-24T11:30:04.703Z,6.53
2022-08-24T11:33:18.937Z,10.23
2022-08-24T11:36:31.561Z,11.05
2022-08-24T11:39:43.735Z,9.68
2022-08-24T11:43:19.205Z,10.15
2022-08-24T11:46:45.062Z,7.58
2022-08-24T11:50:00.730Z,6.95
2022-08-24T11:53:30.880Z,9.68
2022-08-24T11:57:05.250Z,10.70
2022-08-24T12:00:26.324Z,8.23
2022-08-24T12:04:07.370Z,6.57
2022-08-24T12:07:22.350Z,7.58
2022-08-24T12:10:55.408Z,6.20
2022-08-24T12:14:38.778Z,8.00
2022-08-24T12:18:26.143Z,9.40
2022-08-24T12:21:36.290Z,7.72
2022-08-24T12:25:15.436Z,11.22
2022-08-24T12:28:23.555Z,12.18
2022-08-24T12:31:51.704Z,11.25
2022-08-24T12:35:35.648Z,16.60
2022-08-24T12:38:46.810Z,11.75
2022-08-24T12:42:21.771Z,11.45
2022-08-24T12:45:30.355Z,9.48
2022-08-24T12:49:01.956Z,10.80
2022-08-24T12:52:28.335Z,20.97
2022-08-24T12:56:02.447Z,17.23
2022-08-24T12:59:39.366Z,19.20
2022-08-24T13:02:56.612Z,17.82
2022-08-24T13:06:06.660Z,22.82
2022-08-24T13:09:31.412Z,13.85
2022-08-24T13:13:01.404Z,10.82
2022-08-24T13:16:11.175Z,10.55
2022-08-24T13:19:33.618Z,14.68
2022-08-24T13:23:08.199Z,30.97
2022-08-24T13:26:40.063Z,14.73
2022-08-24T13:29:49.643Z,5.87
2022-08-24T13:33:00.550Z,9.85
2022-08-24T13:36:16.596Z,9.75
2022-08-24T13:40:09.858Z,23.35
2022-08-24T13:43:39.644Z,8.68
2022-08-24T13:47:25.548Z,18.10
2022-08-24T13:51:07.543Z,8.63
2022-08-24T13:54:38.186Z,19.55
2022-08-24T13:57:59.339Z,9.78
2022-08-24T14:01:33.053Z,7.47
2022-08-24T14:04:56.375Z,8.65
2022-08-24T14:08:30.310Z,16.90
2022-08-24T14:12:02.151Z,9.45
2022-08-24T14:15:46.931Z,14.30
2022-08-24T14:19:17.129Z,8.88
2022-08-24T14:25:44.472Z,10.08
2022-08-24T14:28:58.122Z,11.48
2022-08-24T14:32:12.933Z,9.23
2022-08-24T14:35:37.770Z,9.25
2022-08-24T14:39:00.450Z,14.28
2022-08-24T14:42:34.874Z,7.83
2022-08-24T14:46:20.357Z,8.30
2022-08-24T14:49:51.882Z,9.75
2022-08-24T14:53:04.459Z,4.80
2022-08-24T14:56:25.022Z,15.78
2022-08-24T14:59:54.610Z,9.58
2022-08-24T15:03:40.910Z,14.70
2022-08-24T15:07:09.081Z,10.43
2022-08-24T15:10:17.179Z,11.80
2022-08-24T15:13:29.265Z,6.15
2022-08-24T15:16:55.551Z,8.25
2022-08-24T15:20:26.688Z,9.88
2022-08-24T15:24:10.008Z,11.68
2022-08-24T15:27:50.721Z,10.32
2022-08-24T15:31:05.733Z,8.03
2022-08-24T15:34:15.193Z,22.45
2022-08-24T15:37:22.778Z,10.40
2022-08-24T15:40:39.959Z,12.90
2022-08-24T15:43:48.887Z,13.13
2022-08-24T15:47:01.802Z,14.65
2022-08-24T15:50:16.040Z,15.40
2022-08-24T15:53:23.108Z,24.07
2022-08-24T15:56:47.407Z,10.05
2022-08-24T15:59:58.470Z,19.77
2022-08-24T16:03:08.546Z,13.55
2022-08-24T16:06:16.429Z,11.67
2022-08-24T16:09:37.248Z,21.48
2022-08-24T16:12:42.083Z,18.95
2022-08-24T16:15:47.865Z,13.75
2022-08-24T16:19:12.695Z,28.55
2022-08-24T16:22:23.214Z,21.80
2022-08-24T16:25:34.893Z,15.58
2022-08-24T16:28:47.770Z,33.45
2022-08-24T16:32:05.126Z,18.77
2022-08-24T16:35:27.750Z,26.27
2022-08-24T16:38:35.919Z,19.65
2022-08-24T16:41:45.517Z,13.03
2022-08-24T16:44:57.163Z,25.02
2022-08-24T16:48:05.155Z,17.82
2022-08-24T16:51:12.887Z,15.90
2022-08-24T16:54:19.061Z,17.20
2022-08-24T16:57:30.028Z,18.20
2022-08-24T17:00:39.458Z,21.37
2022-08-24T17:03:45.160Z,17.30
2022-08-24T17:06:50.898Z,14.40
2022-08-24T17:09:58.772Z,9.70
2022-08-24T17:13:04.957Z,9.95
2022-08-24T17:16:10.961Z,11.15
2022-08-24T17:19:19.297Z,13.10
2022-08-24T17:22:27.677Z,10.35
2022-08-24T17:25:38.230Z,12.37
2022-08-24T17:28:45.843Z,13.60
2022-08-24T17:31:52.785Z,13.13
2022-08-24T17:34:59.074Z,15.75
2022-08-24T17:38:05.247Z,9.70
2022-08-24T17:41:11.327Z,13.00
2022-08-24T17:44:20.445Z,11.68
2022-08-24T17:47:25.200Z,5.70
2022-08-24T17:50:31.169Z,21.42
2022-08-24T17:53:36.688Z,7.60
2022-08-24T17:56:45.901Z,11.22
2022-08-24T17:59:51.751Z,11.63
2022-08-24T18:02:57.362Z,8.00
2022-08-24T18:06:03.565Z,13.93
2022-08-24T18:09:11.454Z,10.13
2022-08-24T18:12:17.662Z,15.63
2022-08-24T18:15:34.614Z,14.53
2022-08-24T18:18:30.685Z,15.45
2022-08-24T18:21:35.783Z,13.88
2022-08-24T18:24:41.135Z,8.55
2022-08-24T18:27:46.899Z,21.87
2022-08-24T18:30:52.860Z,11.15
2022-08-24T18:33:58.222Z,8.95
2022-08-24T18:37:04.152Z,10.95
2022-08-24T18:40:08.832Z,11.35
2022-08-24T18:43:16.310Z,16.35
2022-08-24T18:46:22.443Z,20.35
2022-08-24T18:49:27.953Z,15.78
2022-08-24T18:52:34.620Z,13.05
2022-08-24T18:55:40.175Z,9.55
2022-08-24T18:58:46.192Z,13.13
2022-08-24T19:02:09.467Z,15.43
2022-08-24T19:05:24.898Z,9.88
2022-08-24T19:08:31.691Z,10.20
2022-08-24T19:11:38.571Z,5.70
2022-08-24T19:14:46.496Z,6.55
2022-08-24T19:17:51.379Z,12.53
2022-08-24T19:20:52.585Z,7.03
2022-08-24T19:23:59.446Z,21.33
2022-08-24T19:27:04.870Z,11.22
2022-08-24T19:30:11.741Z,13.10
2022-08-24T19:33:18.010Z,19.67
2022-08-24T19:36:23.962Z,8.15
2022-08-24T19:39:31.679Z,13.78
2022-08-24T19:42:35.543Z,17.45
2022-08-24T19:46:00.309Z,9.55
2022-08-24T19:49:06.025Z,17.12
2022-08-24T19:52:13.356Z,12.78
2022-08-24T19:55:24.089Z,11.10
2022-08-24T19:58:45.385Z,10.50
2022-08-24T20:01:52.112Z,16.67
2022-08-24T20:04:56.980Z,9.13
2022-08-24T20:08:03.336Z,10.20
2022-08-24T20:11:09.243Z,12.45
2022-08-24T20:14:15.355Z,15.23
2022-08-24T20:17:20.964Z,15.98
2022-08-24T20:20:27.914Z,13.50
2022-08-24T20:23:33.237Z,13.10
2022-08-24T20:26:38.648Z,11.55
2022-08-24T20:29:44.067Z,13.40
2022-08-24T20:32:49.263Z,17.37
2022-08-24T20:35:54.832Z,12.30
2022-08-24T20:39:01.784Z,14.75
2022-08-24T20:42:10.894Z,14.98
2022-08-24T20:45:15.175Z,10.65
2022-08-24T20:48:21.622Z,9.33
2022-08-24T20:51:27.328Z,20.23
2022-08-24T20:54:37.685Z,22.00
2022-08-24T20:57:40.122Z,14.83
2022-08-24T21:00:47.923Z,9.65
2022-08-24T21:03:54.762Z,13.83
2022-08-24T21:07:01.249Z,7.67
2022-08-24T21:10:07.929Z,14.75
2022-08-24T21:13:14.373Z,12.03
2022-08-24T21:16:22.267Z,13.08
2022-08-24T21:19:28.433Z,13.65
2022-08-24T21:22:34.150Z,11.88
2022-08-24T21:25:39.829Z,14.98
2022-08-24T21:28:45.457Z,14.07
2022-08-24T21:31:53.848Z,14.80
2022-08-24T21:34:59.514Z,14.38
2022-08-24T21:38:05.907Z,11.00
2022-08-24T21:41:13.853Z,12.73
2022-08-24T21:44:19.365Z,11.22
2022-08-24T21:47:24.753Z,10.48
2022-08-24T21:50:30.459Z,10.15
2022-08-24T21:53:35.693Z,9.73
2022-08-24T21:56:42.970Z,7.22
2022-08-24T21:59:48.911Z,9.45
2022-08-24T22:02:49.309Z,13.20
2022-08-24T22:05:56.296Z,11.83
2022-08-24T22:09:02.012Z,10.98
2022-08-24T22:12:07.673Z,8.85
2022-08-24T22:15:13.764Z,13.08
2022-08-24T22:18:19.986Z,9.10
2022-08-24T22:21:29.485Z,11.63
2022-08-24T22:24:34.581Z,13.55
2022-08-24T22:27:40.084Z,9.88
2022-08-24T22:30:48.128Z,12.40
2022-08-24T22:33:54.434Z,14.38
2022-08-24T22:37:02.248Z,9.28
2022-08-24T22:40:12.378Z,14.15
2022-08-24T22:43:15.245Z,12.40
2022-08-24T22:46:21.015Z,10.08
2022-08-24T22:49:26.594Z,5.95
2022-08-24T22:52:33.243Z,9.48
2022-08-24T22:55:39.529Z,11.40
2022-08-24T22:58:45.416Z,13.18
2022-08-24T23:01:54.422Z,14.25
2022-08-24T23:05:02.224Z,8.03
2022-08-24T23:08:08.068Z,12.10
2022-08-24T23:11:14.733Z,16.05
2022-08-24T23:14:21.322Z,18.90
2022-08-24T23:17:27.675Z,11.25
2022-08-24T23:20:33.670Z,14.58
2022-08-24T23:23:40.029Z,16.62
2022-08-24T23:26:45.930Z,11.88
2022-08-24T23:29:46.156Z,9.70
2022-08-24T23:32:51.398Z,11.43
2022-08-24T23:35:56.640Z,11.55
2022-08-24T23:39:05.509Z,13.58
2022-08-24T23:42:10.549Z,12.30
2022-08-24T23:45:16.058Z,6.37
2022-08-24T23:48:22.127Z,14.40
2022-08-24T23:51:30.281Z,8.73
2022-08-24T23:54:36.127Z,10.25
2022-08-24T23:57:41.487Z,10.03
